Time;durP1;ratioP1;P1;durP2;ratioP2;P2;SDS_P1;SDS_P2;PMS_P1;PMS_P2;Temp;Humidity;BMP_temperature;BMP_pressure;BME280_temperature;BME280_humidity;BME280_pressure;Samples;Min_cycle;Max_cycle;Signal;HPM_P1;HPM_P2
2022/09/14 00:02:20;;;;;;;;;;;;;;;24.94;35.33;98604.59;4483671;32;34053;-87
2022/09/14 00:04:50;;;;;;;;;;;;;;;24.79;35.52;98594.84;4483862;31;34922;-83
2022/09/14 00:07:17;;;;;;;;;;;;;;;24.88;35.32;98595.19;4468959;32;34210;-84
2022/09/14 00:09:44;;;;;;;;;;;;;;;24.82;35.49;98600.00;4478322;32;34013;-87
2022/09/14 00:12:11;;;;;;;;;;;;;;;24.74;35.64;98603.91;4482860;32;31766;-83
2022/09/14 00:14:39;;;;;;;;;;;;;;;24.76;35.66;98604.66;4482730;32;33892;-87
2022/09/14 00:17:06;;;;;;;;;;;;;;;24.69;35.78;98605.94;4470174;32;34137;-86
2022/09/14 00:19:34;;;;;;;;;;;;;;;24.64;35.72;98607.97;4454908;32;34066;-84
2022/09/14 00:22:02;;;;;;;;;;;;;;;24.85;35.16;98597.13;4468562;32;34116;-87
2022/09/14 00:24:30;;;;;;;;;;;;;;;24.75;35.43;98595.00;4468453;32;34342;-85
2022/09/14 00:26:57;;;;;;;;;;;;;;;24.84;35.50;98598.09;4468001;32;35025;-87
2022/09/14 00:29:24;;;;;;;;;;;;;;;24.80;35.56;98591.25;4480316;32;35004;-88
2022/09/14 00:31:51;;;;;;;;;;;;;;;24.77;35.57;98592.25;4475584;32;34037;-86
2022/09/14 00:34:20;;;;;;;;;;;;;;;24.74;35.60;98597.75;4484001;32;33835;-85
2022/09/14 00:36:48;;;;;;;;;;;;;;;24.68;35.61;98593.63;4482762;32;34070;-82
2022/09/14 00:39:16;;;;;;;;;;;;;;;24.68;35.54;98601.56;4457114;32;34974;-83
2022/09/14 00:41:44;;;;;;;;;;;;;;;24.69;35.62;98605.94;4471694;32;33622;-85
2022/09/14 00:44:11;;;;;;;;;;;;;;;24.67;35.73;98599.00;4469986;32;34065;-82
2022/09/14 00:46:40;;;;;;;;;;;;;;;24.66;35.71;98600.81;4482905;32;35281;-86
2022/09/14 00:49:15;;;;;;;;;;;;;;;24.68;35.58;98587.47;4482585;32;33994;-84
2022/09/14 00:51:53;;;;;;;;;;;;;;;24.66;35.53;98584.03;4469080;32;34039;-84
2022/09/14 00:54:21;;;;;;;;;;;;;;;24.61;35.75;98583.44;4469749;32;35031;-85
2022/09/14 00:56:49;;;;;;;;;;;;;;;24.54;35.82;98579.41;4484023;32;35242;-84
2022/09/14 00:59:18;;;;;;;;;;;;;;;24.56;35.81;98575.72;4457146;32;33743;-85
2022/09/14 01:01:45;;;;;;;;;;;;;;;24.45;36.08;98570.16;4454141;32;34101;-86
2022/09/14 01:04:12;;;;;;;;;;;;;;;24.51;36.05;98565.38;4468100;32;34234;-83
2022/09/14 01:06:42;;;;;;;;;;;;;;;24.36;36.36;98573.25;4468042;32;34136;-84
2022/09/14 01:09:13;;;;;;;;;;;;;;;24.38;36.42;98574.03;4454551;32;34735;-89
2022/09/14 01:11:42;;;;;;;;;;;;;;;24.39;36.35;98565.16;4468247;32;33685;-84
2022/09/14 01:14:16;;;;;;;;;;;;;;;24.34;36.52;98569.84;4468115;32;33775;-83
2022/09/14 01:16:56;;;;;;;;;;;;;;;24.25;36.85;98569.38;4468406;32;33828;-87
2022/09/14 01:19:26;;;;;;;;;;;;;;;24.31;36.58;98567.34;4466375;32;34900;-89
2022/09/14 01:21:54;;;;;;;;;;;;;;;24.36;36.52;98565.28;4459569;32;33108;-86
2022/09/14 01:24:21;;;;;;;;;;;;;;;24.33;36.60;98565.47;4454495;32;34162;-86
2022/09/14 01:26:48;;;;;;;;;;;;;;;24.20;36.77;98560.81;4482511;32;34460;-88
2022/09/14 01:29:15;;;;;;;;;;;;;;;24.17;36.97;98565.41;4481458;32;34476;-85
2022/09/14 01:31:43;;;;;;;;;;;;;;;24.20;36.92;98559.94;4468175;32;34265;-84
2022/09/14 01:34:28;;;;;;;;;;;;;;;24.23;36.87;98562.44;4467869;32;33989;-89
2022/09/14 01:37:11;;;;;;;;;;;;;;;24.16;36.97;98564.53;4468147;32;34412;-83
2022/09/14 01:39:39;;;;;;;;;;;;;;;24.12;37.15;98552.41;4454568;32;34614;-89
2022/09/14 01:42:06;;;;;;;;;;;;;;;24.09;37.06;98555.22;4454701;32;34107;-86
2022/09/14 01:44:34;;;;;;;;;;;;;;;24.02;37.33;98549.41;4467856;32;34300;-89
2022/09/14 01:47:06;;;;;;;;;;;;;;;23.98;37.31;98544.31;4453776;32;34359;-83
2022/09/14 01:49:37;;;;;;;;;;;;;;;23.98;37.37;98547.84;4462387;32;33957;-84
2022/09/14 01:52:09;;;;;;;;;;;;;;;24.06;37.40;98544.81;4456512;32;33271;-86
2022/09/14 01:55:05;;;;;;;;;;;;;;;23.97;37.55;98539.97;4468751;32;33813;-82
2022/09/14 01:57:41;;;;;;;;;;;;;;;24.02;37.29;98530.00;4468051;32;34255;-89
2022/09/14 02:00:09;;;;;;;;;;;;;;;23.85;37.66;98517.63;4468294;32;34290;-88
2022/09/14 02:02:38;;;;;;;;;;;;;;;23.68;38.12;98520.31;4455591;32;33380;-84
2022/09/14 02:05:06;;;;;;;;;;;;;;;23.68;38.18;98515.88;4463130;32;32831;-87
2022/09/14 02:07:34;;;;;;;;;;;;;;;23.82;37.81;98509.00;4479117;32;34409;-86
2022/09/14 02:10:02;;;;;;;;;;;;;;;23.76;38.07;98508.38;4471145;32;33773;-86
2022/09/14 02:12:30;;;;;;;;;;;;;;;23.72;38.16;98503.34;4453490;32;32280;-88
2022/09/14 02:14:57;;;;;;;;;;;;;;;23.87;37.96;98504.34;4453754;32;34221;-87
2022/09/14 02:17:24;;;;;;;;;;;;;;;23.78;38.02;98501.19;4453573;32;35330;-83
2022/09/14 02:19:55;;;;;;;;;;;;;;;23.70;38.15;98492.81;4461784;32;34386;-89
2022/09/14 02:22:22;;;;;;;;;;;;;;;23.77;38.02;98488.06;4483178;32;34215;-86
2022/09/14 02:24:49;;;;;;;;;;;;;;;23.78;37.96;98490.63;4483237;32;33936;-88
2022/09/14 02:27:17;;;;;;;;;;;;;;;23.72;37.97;98493.59;4468986;32;34543;-84
2022/09/14 02:29:44;;;;;;;;;;;;;;;23.66;38.08;98491.25;4460445;32;34334;-85
2022/09/14 02:32:14;;;;;;;;;;;;;;;23.70;38.16;98484.87;4458580;32;32840;-83
2022/09/14 02:34:41;;;;;;;;;;;;;;;23.62;38.28;98486.16;4483261;32;34057;-88
2022/09/14 02:37:41;;;;;;;;;;;;;;;23.70;38.15;98484.00;4483057;32;33738;-88
2022/09/14 02:40:13;;;;;;;;;;;;;;;23.60;38.28;98486.25;4435561;32;33560;-87
2022/09/14 02:42:45;;;;;;;;;;;;;;;23.65;38.22;98481.56;4453156;32;33988;-82
2022/09/14 02:45:15;;;;;;;;;;;;;;;23.74;38.04;98491.72;4453425;32;33483;-83
2022/09/14 02:47:46;;;;;;;;;;;;;;;23.68;38.43;98489.41;4467267;32;35070;-87
2022/09/14 02:50:32;;;;;;;;;;;;;;;23.65;38.56;98472.78;4477336;32;34065;-83
2022/09/14 02:53:11;;;;;;;;;;;;;;;23.72;38.64;98471.56;4482785;32;34272;-87
2022/09/14 02:55:42;;;;;;;;;;;;;;;23.76;38.40;98470.47;4468103;32;34244;-85
2022/09/14 02:58:10;;;;;;;;;;;;;;;23.70;38.63;98471.63;4468512;32;34402;-84
2022/09/14 03:00:39;;;;;;;;;;;;;;;23.73;38.63;98479.41;4469876;32;33796;-88
2022/09/14 03:03:08;;;;;;;;;;;;;;;23.67;38.77;98461.19;4467377;32;34080;-85
2022/09/14 03:05:36;;;;;;;;;;;;;;;23.74;38.76;98459.94;4467673;32;34040;-88
2022/09/14 03:08:03;;;;;;;;;;;;;;;23.75;38.90;98453.75;4467133;32;35294;-88
2022/09/14 03:10:31;;;;;;;;;;;;;;;23.67;39.11;98461.19;4471143;32;35048;-88
2022/09/14 03:12:58;;;;;;;;;;;;;;;23.70;39.30;98460.19;4456419;32;33618;-84
2022/09/14 03:15:25;;;;;;;;;;;;;;;23.35;40.18;98459.34;4476619;32;34078;-85
2022/09/14 03:17:53;;;;;;;;;;;;;;;23.84;39.22;98462.13;4454403;32;34145;-85
2022/09/14 03:20:21;;;;;;;;;;;;;;;23.86;39.00;98462.88;4460203;32;34688;-85
2022/09/14 03:22:48;;;;;;;;;;;;;;;23.70;39.32;98461.03;4467278;32;33302;-87
2022/09/14 03:25:18;;;;;;;;;;;;;;;23.61;39.52;98464.16;4482589;32;34934;-83
2022/09/14 03:27:53;;;;;;;;;;;;;;;23.76;39.31;98466.03;4482312;32;33732;-88
2022/09/14 03:30:20;;;;;;;;;;;;;;;23.93;38.95;98451.03;4472360;32;35062;-89
2022/09/14 03:32:47;;;;;;;;;;;;;;;24.06;38.56;98452.13;4473799;32;33375;-87
2022/09/14 03:35:15;;;;;;;;;;;;;;;24.08;38.52;98449.38;4483917;32;34002;-89
2022/09/14 03:37:43;;;;;;;;;;;;;;;24.12;38.45;98443.81;4469865;32;34529;-84
2022/09/14 03:40:11;;;;;;;;;;;;;;;24.03;38.74;98446.97;4483393;32;34521;-89
2022/09/14 03:42:42;;;;;;;;;;;;;;;24.08;38.74;98455.53;4470320;32;32925;-83
2022/09/14 03:45:10;;;;;;;;;;;;;;;24.01;38.89;98459.44;4484395;32;34761;-87
2022/09/14 03:47:38;;;;;;;;;;;;;;;24.01;38.81;98465.59;4470140;32;34165;-86
2022/09/14 03:50:06;;;;;;;;;;;;;;;23.99;38.86;98456.03;4477049;32;33626;-86
2022/09/14 03:52:34;;;;;;;;;;;;;;;23.95;39.02;98462.44;4484298;32;33764;-86
2022/09/14 03:55:01;;;;;;;;;;;;;;;24.10;38.75;98469.56;4466511;32;34858;-87
2022/09/14 03:57:28;;;;;;;;;;;;;;;24.17;38.58;98465.62;4477031;32;34096;-83
2022/09/14 03:59:55;;;;;;;;;;;;;;;24.22;38.50;98471.53;4468583;32;33843;-88
2022/09/14 04:02:23;;;;;;;;;;;;;;;24.11;38.66;98465.97;4472820;32;33266;-87
2022/09/14 04:04:51;;;;;;;;;;;;;;;24.10;38.72;98458.97;4480546;32;34020;-82
2022/09/14 04:07:18;;;;;;;;;;;;;;;24.20;38.45;98459.31;4483174;32;33992;-82
2022/09/14 04:09:45;;;;;;;;;;;;;;;24.08;38.58;98457.31;4473989;32;34937;-87
2022/09/14 04:12:12;;;;;;;;;;;;;;;24.06;38.56;98460.06;4484095;32;33271;-82
2022/09/14 04:14:39;;;;;;;;;;;;;;;24.18;38.38;98462.03;4484238;32;34319;-83
2022/09/14 04:17:06;;;;;;;;;;;;;;;24.07;38.67;98459.13;4480771;32;34406;-86
2022/09/14 04:19:36;;;;;;;;;;;;;;;23.97;38.89;98448.16;4479091;32;34962;-82
2022/09/14 04:22:04;;;;;;;;;;;;;;;24.01;38.71;98443.53;4473508;32;32887;-86
2022/09/14 04:24:31;;;;;;;;;;;;;;;24.08;38.74;98429.03;4474882;32;34315;-83
2022/09/14 04:26:58;;;;;;;;;;;;;;;24.04;38.96;98441.59;4483211;32;34308;-86
2022/09/14 04:29:25;;;;;;;;;;;;;;;24.01;38.80;98438.25;4480333;32;33867;-82
2022/09/14 04:31:52;;;;;;;;;;;;;;;24.00;38.86;98441.84;4470014;32;33524;-83
2022/09/14 04:34:20;;;;;;;;;;;;;;;24.05;38.77;98434.50;4479294;32;35153;-82
2022/09/14 04:36:47;;;;;;;;;;;;;;;24.13;38.44;98427.03;4468609;32;35169;-88
2022/09/14 04:39:14;;;;;;;;;;;;;;;24.08;38.71;98436.13;4481272;32;34100;-84
2022/09/14 04:41:42;;;;;;;;;;;;;;;23.97;39.01;98431.41;4470114;32;34116;-90
2022/09/14 04:44:09;;;;;;;;;;;;;;;24.02;39.10;98429.41;4471737;32;33888;-82
2022/09/14 04:46:38;;;;;;;;;;;;;;;24.02;39.03;98426.75;4478161;32;35287;-89
2022/09/14 04:49:12;;;;;;;;;;;;;;;24.09;38.80;98424.59;4457524;32;34300;-87
2022/09/14 04:51:41;;;;;;;;;;;;;;;24.06;38.95;98415.06;4479981;32;33765;-87
2022/09/14 04:54:08;;;;;;;;;;;;;;;24.34;38.74;98410.88;4473197;32;35082;-82
2022/09/14 04:56:36;;;;;;;;;;;;;;;24.57;38.49;98415.78;4480263;32;34376;-83
2022/09/14 04:59:04;;;;;;;;;;;;;;;24.74;37.74;98407.75;4474797;32;34247;-81
2022/09/14 05:01:38;;;;;;;;;;;;;;;24.66;37.64;98403.78;4467134;32;33359;-82
2022/09/14 05:04:07;;;;;;;;;;;;;;;24.58;37.75;98404.22;4454200;32;34354;-82
2022/09/14 05:06:36;;;;;;;;;;;;;;;24.16;38.60;98416.25;4454021;32;35251;-83
2022/09/14 05:09:04;;;;;;;;;;;;;;;24.44;38.40;98409.47;4468196;32;34894;-81
2022/09/14 05:11:32;;;;;;;;;;;;;;;24.71;37.51;98415.87;4468062;32;32926;-82
2022/09/14 05:14:00;;;;;;;;;;;;;;;24.48;37.78;98426.91;4453537;32;35299;-82
2022/09/14 05:16:28;;;;;;;;;;;;;;;24.49;37.96;98428.59;4468031;32;33731;-82
2022/09/14 05:19:00;;;;;;;;;;;;;;;24.70;37.63;98434.47;4467853;32;34262;-82
2022/09/14 05:21:28;;;;;;;;;;;;;;;24.79;37.64;98433.97;4467510;32;31827;-82
2022/09/14 05:23:57;;;;;;;;;;;;;;;24.82;37.75;98422.34;4467637;32;34323;-80
2022/09/14 05:26:25;;;;;;;;;;;;;;;24.54;38.48;98431.00;4453627;32;34174;-83
2022/09/14 05:28:55;;;;;;;;;;;;;;;24.69;38.09;98420.38;4467967;32;34115;-85
2022/09/14 05:31:23;;;;;;;;;;;;;;;24.65;38.06;98413.53;4466798;32;34107;-82
2022/09/14 05:33:50;;;;;;;;;;;;;;;24.42;38.30;98401.59;4467475;32;34062;-83
2022/09/14 05:36:17;;;;;;;;;;;;;;;24.33;38.34;98401.22;4470036;32;34304;-83
2022/09/14 05:38:45;;;;;;;;;;;;;;;24.63;38.07;98404.84;4482995;31;34149;-83
2022/09/14 05:41:12;;;;;;;;;;;;;;;24.68;37.91;98413.38;4469527;32;33787;-83
2022/09/14 05:43:40;;;;;;;;;;;;;;;24.70;37.79;98416.81;4483781;32;34236;-86
2022/09/14 05:46:09;;;;;;;;;;;;;;;24.72;37.75;98403.47;4483768;32;34286;-82
2022/09/14 05:48:37;;;;;;;;;;;;;;;24.88;37.57;98411.38;4483444;32;34165;-82
2022/09/14 05:51:06;;;;;;;;;;;;;;;25.06;37.47;98412.97;4483665;32;33397;-86
2022/09/14 05:53:33;;;;;;;;;;;;;;;24.99;37.82;98422.22;4483000;32;34061;-83
2022/09/14 05:56:12;;;;;;;;;;;;;;;25.02;37.80;98427.34;4483720;32;34292;-84
2022/09/14 05:58:39;;;;;;;;;;;;;;;25.03;36.95;98421.09;4481410;32;34252;-84
2022/09/14 06:01:11;;;;;;;;;;;;;;;24.17;38.19;98412.69;4462646;32;33642;-83
2022/09/14 06:03:39;;;;;;;;;;;;;;;22.77;41.27;98429.53;4467625;32;34551;-83
2022/09/14 06:06:07;;;;;;;;;;;;;;;23.27;40.50;98415.59;4467806;32;33851;-85
2022/09/14 06:08:34;;;;;;;;;;;;;;;22.64;41.86;98424.91;4459400;32;35520;-83
2022/09/14 06:11:09;;;;;;;;;;;;;;;23.92;38.73;98413.13;4469096;32;32970;-83
2022/09/14 06:13:36;;;;;;;;;;;;;;;23.66;39.09;98408.34;4469010;32;33971;-86
2022/09/14 06:16:04;;;;;;;;;;;;;;;23.63;40.03;98401.41;4483197;32;35291;-83
2022/09/14 06:18:32;;;;;;;;;;;;;;;23.65;40.36;98390.75;4463206;32;34172;-82
2022/09/14 06:20:59;;;;;;;;;;;;;;;24.05;39.67;98394.78;4453666;32;33518;-83
2022/09/14 06:23:27;;;;;;;;;;;;;;;24.16;39.23;98399.50;4467604;32;34193;-83
2022/09/14 06:25:55;;;;;;;;;;;;;;;23.57;40.04;98399.09;4453882;32;34106;-83
2022/09/14 06:28:22;;;;;;;;;;;;;;;23.48;40.66;98418.94;4467231;32;34415;-82
2022/09/14 06:30:50;;;;;;;;;;;;;;;23.40;40.39;98407.03;4467320;32;33644;-82
2022/09/14 06:33:17;;;;;;;;;;;;;;;23.67;40.38;98410.91;4467828;32;34839;-83
2022/09/14 06:35:58;;;;;;;;;;;;;;;23.78;40.16;98415.66;4467494;32;35159;-83
2022/09/14 06:38:25;;;;;;;;;;;;;;;23.78;39.96;98419.16;4471746;32;33953;-83
2022/09/14 06:40:55;;;;;;;;;;;;;;;24.42;39.01;98438.69;4483166;32;34171;-82
2022/09/14 06:43:23;;;;;;;;;;;;;;;24.81;38.35;98437.38;4483031;32;33892;-83
2022/09/14 06:46:02;;;;;;;;;;;;;;;24.60;38.62;98446.56;4475940;32;34028;-83
2022/09/14 06:48:31;;;;;;;;;;;;;;;25.20;37.46;98444.03;4478120;32;33940;-84
2022/09/14 06:50:59;;;;;;;;;;;;;;;24.81;38.05;98452.44;4468675;32;33318;-86
2022/09/14 06:53:26;;;;;;;;;;;;;;;24.20;39.34;98452.22;4482961;32;34089;-83
2022/09/14 06:55:56;;;;;;;;;;;;;;;22.23;43.47;98451.47;4475691;32;35129;-85
2022/09/14 06:58:24;;;;;;;;;;;;;;;23.79;41.05;98442.06;4452836;32;34935;-83
2022/09/14 07:00:51;;;;;;;;;;;;;;;22.94;43.30;98446.37;4468061;32;33529;-84
2022/09/14 07:03:18;;;;;;;;;;;;;;;23.06;44.11;98429.91;4466683;32;34328;-83
2022/09/14 07:05:45;;;;;;;;;;;;;;;24.06;42.61;98423.00;4454890;32;34226;-89
2022/09/14 07:08:13;;;;;;;;;;;;;;;24.51;42.48;98411.69;4472216;32;34158;-88
2022/09/14 07:10:41;;;;;;;;;;;;;;;24.79;42.42;98414.56;4472343;32;32908;-83
2022/09/14 07:13:09;;;;;;;;;;;;;;;24.86;42.62;98410.63;4471756;32;34082;-88
2022/09/14 07:15:36;;;;;;;;;;;;;;;24.78;43.03;98419.03;4472237;32;34319;-88
2022/09/14 07:18:03;;;;;;;;;;;;;;;25.16;42.21;98435.41;4472101;32;34982;-88
2022/09/14 07:20:32;;;;;;;;;;;;;;;25.13;42.58;98434.72;4472114;32;33372;-87
2022/09/14 07:22:59;;;;;;;;;;;;;;;25.06;41.50;98439.50;4472361;32;34087;-88
2022/09/14 07:25:26;;;;;;;;;;;;;;;24.70;42.50;98437.13;4472082;32;35275;-88
2022/09/14 07:27:54;;;;;;;;;;;;;;;24.71;42.92;98436.22;4471668;32;34090;-89
2022/09/14 07:30:23;;;;;;;;;;;;;;;24.75;43.17;98440.41;4471792;32;33209;-86
2022/09/14 07:32:50;;;;;;;;;;;;;;;24.87;42.97;98439.69;4471973;32;34297;-88
2022/09/14 07:35:18;;;;;;;;;;;;;;;24.57;42.80;98436.13;4457843;32;34283;-88
2022/09/14 07:37:45;;;;;;;;;;;;;;;24.86;42.54;98437.16;4471954;32;34210;-88
2022/09/14 07:40:12;;;;;;;;;;;;;;;25.07;42.33;98425.28;4471775;32;34340;-88
2022/09/14 07:42:40;;;;;;;;;;;;;;;25.25;41.67;98423.37;4471724;32;34257;-86
2022/09/14 07:45:07;;;;;;;;;;;;;;;25.40;41.16;98430.44;4471944;32;34418;-85
2022/09/14 07:47:34;;;;;;;;;;;;;;;25.22;41.99;98419.09;4471907;32;34102;-89
2022/09/14 07:50:02;;;;;;;;;;;;;;;25.17;42.79;98413.22;4471659;32;33310;-87
2022/09/14 07:52:29;;;;;;;;;;;;;;;25.28;43.00;98417.06;4471908;32;35083;-88
2022/09/14 07:55:02;;;;;;;;;;;;;;;25.47;42.84;98407.06;4471489;32;34252;-84
2022/09/14 07:57:29;;;;;;;;;;;;;;;25.80;42.14;98414.81;4471701;32;34967;-85
2022/09/14 08:00:16;;;;;;;;;;;;;;;25.84;42.13;98411.00;4471618;32;34279;-86
2022/09/14 08:02:43;;;;;;;;;;;;;;;25.43;42.51;98410.84;4471433;32;34037;-85
2022/09/14 08:05:11;;;;;;;;;;;;;;;24.00;44.40;98402.13;4471593;32;35216;-89
2022/09/14 08:07:38;;;;;;;;;;;;;;;24.41;44.55;98388.44;4471298;32;34461;-88
2022/09/14 08:10:05;;;;;;;;;;;;;;;23.41;47.05;98385.81;4471191;32;33068;-88
2022/09/14 08:12:32;;;;;;;;;;;;;;;24.02;44.64;98393.19;4471341;32;34305;-88
2022/09/14 08:14:59;;;;;;;;;;;;;;;24.11;45.38;98406.84;4471279;32;34272;-85
2022/09/14 08:17:27;;;;;;;;;;;;;;;24.10;44.79;98398.06;4469115;32;34924;-88
2022/09/14 08:19:55;;;;;;;;;;;;;;;24.38;43.96;98399.16;4468676;32;33457;-88
2022/09/14 08:22:22;;;;;;;;;;;;;;;23.46;45.67;98398.81;4468700;32;34069;-88
2022/09/14 08:24:49;;;;;;;;;;;;;;;24.11;44.21;98386.50;4468400;32;34871;-89
2022/09/14 08:27:16;;;;;;;;;;;;;;;24.14;43.65;98399.59;4468437;32;34895;-87
2022/09/14 08:29:43;;;;;;;;;;;;;;;24.44;42.93;98388.28;4468520;32;34227;-86
2022/09/14 08:32:10;;;;;;;;;;;;;;;25.00;42.27;98385.03;4468610;32;35063;-87
2022/09/14 08:34:37;;;;;;;;;;;;;;;23.08;46.74;98377.81;4468630;32;34011;-88
2022/09/14 08:37:04;;;;;;;;;;;;;;;24.55;44.20;98374.41;4468490;32;35628;-87
2022/09/14 08:39:31;;;;;;;;;;;;;;;24.62;43.83;98371.31;4468324;32;33238;-87
2022/09/14 08:41:59;;;;;;;;;;;;;;;24.84;44.05;98370.09;4468361;32;34514;-87
2022/09/14 08:44:32;;;;;;;;;;;;;;;24.68;44.87;98386.88;4468514;32;34816;-89
2022/09/14 08:46:59;;;;;;;;;;;;;;;24.47;45.24;98391.63;4468418;32;34275;-87
2022/09/14 08:49:38;;;;;;;;;;;;;;;24.08;46.80;98391.13;4468407;32;34399;-88
2022/09/14 08:52:08;;;;;;;;;;;;;;;25.20;43.45;98375.91;4468104;32;35108;-87
2022/09/14 08:54:36;;;;;;;;;;;;;;;24.60;45.05;98381.16;4467965;32;34479;-87
2022/09/14 08:57:16;;;;;;;;;;;;;;;24.77;44.95;98377.53;4468166;32;34075;-88
2022/09/14 08:59:47;;;;;;;;;;;;;;;25.51;43.75;98371.41;4454252;32;33196;-88
2022/09/14 09:02:41;;;;;;;;;;;;;;;25.01;44.91;98377.91;4453925;32;34413;-88
2022/09/14 09:05:27;;;;;;;;;;;;;;;25.37;43.36;98368.75;4465366;32;34129;-86
2022/09/14 09:07:59;;;;;;;;;;;;;;;25.66;42.57;98374.94;4467821;32;34918;-85
2022/09/14 09:10:29;;;;;;;;;;;;;;;25.16;43.86;98370.91;4468211;32;34162;-87
2022/09/14 09:12:56;;;;;;;;;;;;;;;23.96;46.51;98369.66;4468039;32;35048;-88
2022/09/14 09:15:23;;;;;;;;;;;;;;;25.19;44.02;98378.66;4453935;32;34073;-89
2022/09/14 09:17:55;;;;;;;;;;;;;;;25.00;44.27;98381.50;4454063;32;34277;-88
2022/09/14 09:20:26;;;;;;;;;;;;;;;25.26;43.85;98400.37;4453793;32;33329;-87
2022/09/14 09:22:58;;;;;;;;;;;;;;;24.66;44.43;98402.03;4453912;32;34485;-87
2022/09/14 09:25:26;;;;;;;;;;;;;;;24.89;44.53;98406.00;4453969;32;34166;-87
2022/09/14 09:27:59;;;;;;;;;;;;;;;24.67;44.86;98406.38;4453501;32;34693;-88
2022/09/14 09:30:27;;;;;;;;;;;;;;;24.19;46.50;98410.78;4453952;32;33317;-87
2022/09/14 09:32:55;;;;;;;;;;;;;;;24.37;46.53;98408.91;4467978;32;34531;-86
2022/09/14 09:35:23;;;;;;;;;;;;;;;25.11;45.80;98410.94;4468349;32;33880;-88
2022/09/14 09:37:51;;;;;;;;;;;;;;;24.43;46.40;98423.63;4468239;32;34227;-88
2022/09/14 09:40:19;;;;;;;;;;;;;;;24.27;46.33;98419.16;4467847;32;33525;-88
2022/09/14 09:43:05;;;;;;;;;;;;;;;25.51;43.00;98411.22;4453947;32;34657;-88
2022/09/14 09:45:53;;;;;;;;;;;;;;;24.27;46.35;98405.91;4467917;32;33816;-88
2022/09/14 09:48:27;;;;;;;;;;;;;;;25.42;44.41;98404.69;4467867;32;35223;-88
2022/09/14 09:50:58;;;;;;;;;;;;;;;24.24;46.45;98414.06;4440692;32;34324;-89
2022/09/14 09:53:25;;;;;;;;;;;;;;;24.68;46.02;98402.78;4467923;32;34763;-89
2022/09/14 09:55:52;;;;;;;;;;;;;;;25.31;45.31;98406.28;4453730;32;35287;-87
2022/09/14 09:58:29;;;;;;;;;;;;;;;25.89;43.94;98408.91;4467666;32;33904;-89
2022/09/14 10:00:58;;;;;;;;;;;;;;;25.88;44.08;98411.69;4467921;32;34125;-89
2022/09/14 10:03:35;;;;;;;;;;;;;;;25.32;44.45;98418.59;4467630;32;33805;-83
2022/09/14 10:06:03;;;;;;;;;;;;;;;26.20;43.28;98425.59;4453506;32;34382;-88
2022/09/14 10:08:34;;;;;;;;;;;;;;;26.28;42.81;98428.63;4453621;32;34982;-89
2022/09/14 10:11:01;;;;;;;;;;;;;;;26.61;41.96;98438.94;4467653;32;34066;-89
2022/09/14 10:13:32;;;;;;;;;;;;;;;26.52;42.36;98444.00;4453674;32;34367;-87
2022/09/14 10:16:06;;;;;;;;;;;;;;;25.79;44.15;98436.13;4467661;32;35089;-87
2022/09/14 10:18:34;;;;;;;;;;;;;;;26.29;42.77;98437.44;4453817;32;34990;-87
2022/09/14 10:21:01;;;;;;;;;;;;;;;26.79;42.06;98425.44;4467769;32;33504;-88
2022/09/14 10:23:30;;;;;;;;;;;;;;;26.88;41.09;98423.00;4467785;32;33975;-87
2022/09/14 10:26:09;;;;;;;;;;;;;;;26.45;42.43;98419.59;4468092;32;34156;-88
2022/09/14 10:28:37;;;;;;;;;;;;;;;27.08;41.46;98405.72;4467587;32;34069;-89
2022/09/14 10:31:10;;;;;;;;;;;;;;;26.86;42.39;98408.97;4453243;32;33237;-89
2022/09/14 10:33:38;;;;;;;;;;;;;;;26.42;42.79;98399.38;4467670;32;33898;-89
2022/09/14 10:36:13;;;;;;;;;;;;;;;27.37;41.76;98397.62;4467264;32;33771;-86
2022/09/14 10:38:45;;;;;;;;;;;;;;;27.37;40.76;98389.62;4453305;32;34490;-89
2022/09/14 10:41:25;;;;;;;;;;;;;;;26.83;41.71;98405.66;4466695;32;33505;-87
2022/09/14 10:43:52;;;;;;;;;;;;;;;26.49;43.20;98407.84;4453631;32;34118;-87
2022/09/14 10:46:20;;;;;;;;;;;;;;;26.43;42.94;98402.88;4467441;32;34537;-87
2022/09/14 10:49:19;;;;;;;;;;;;;;;25.62;44.62;98400.81;4467124;32;34227;-88
2022/09/14 10:51:47;;;;;;;;;;;;;;;26.43;43.62;98402.88;4419786;32;34243;-88
2022/09/14 10:54:29;;;;;;;;;;;;;;;25.83;45.10;98411.94;4467070;32;34244;-86
2022/09/14 10:57:14;;;;;;;;;;;;;;;26.47;43.39;98414.19;4453260;32;34424;-85
2022/09/14 10:59:47;;;;;;;;;;;;;;;26.49;43.44;98407.84;4452947;32;34199;-88
2022/09/14 11:02:28;;;;;;;;;;;;;;;27.29;42.24;98408.78;4467386;32;33689;-88
2022/09/14 11:05:14;;;;;;;;;;;;;;;27.09;42.27;98412.75;4466988;32;33790;-89
2022/09/14 11:08:04;;;;;;;;;;;;;;;27.10;42.86;98410.94;4453036;32;34285;-86
2022/09/14 11:10:31;;;;;;;;;;;;;;;25.88;45.26;98409.03;4453148;32;34638;-88
2022/09/14 11:13:11;;;;;;;;;;;;;;;27.43;41.97;98397.22;4467105;32;34110;-88
2022/09/14 11:15:54;;;;;;;;;;;;;;;27.25;42.72;98401.97;4467195;32;34316;-89
2022/09/14 11:18:24;;;;;;;;;;;;;;;26.73;43.08;98404.53;4452774;32;35206;-87
2022/09/14 11:20:51;;;;;;;;;;;;;;;26.69;43.68;98391.44;4467258;32;34368;-88
2022/09/14 11:23:37;;;;;;;;;;;;;;;26.76;44.17;98391.06;4466996;32;34211;-87
2022/09/14 11:26:09;;;;;;;;;;;;;;;26.92;42.95;98386.41;4466931;32;35006;-84
2022/09/14 11:28:51;;;;;;;;;;;;;;;26.82;43.34;98398.59;4466765;32;35081;-88
2022/09/14 11:31:25;;;;;;;;;;;;;;;26.92;43.52;98391.72;4452869;32;34108;-88
2022/09/14 11:34:05;;;;;;;;;;;;;;;26.27;44.78;98399.50;4452516;32;33502;-89
2022/09/14 11:36:33;;;;;;;;;;;;;;;27.30;42.59;98393.66;4467127;32;33958;-89
2022/09/14 11:39:05;;;;;;;;;;;;;;;27.55;42.60;98384.84;4466802;32;34447;-84
2022/09/14 11:41:43;;;;;;;;;;;;;;;27.46;42.91;98378.34;4452511;32;33593;-89
2022/09/14 11:44:13;;;;;;;;;;;;;;;27.45;42.57;98365.16;4466700;32;33396;-88
2022/09/14 11:46:41;;;;;;;;;;;;;;;27.05;43.05;98359.84;4466270;32;34256;-84
2022/09/14 11:49:09;;;;;;;;;;;;;;;27.31;42.97;98363.41;4466626;32;34086;-83
2022/09/14 11:51:47;;;;;;;;;;;;;;;26.61;44.17;98384.94;4466481;32;33992;-86
2022/09/14 11:54:19;;;;;;;;;;;;;;;27.57;42.29;98370.47;4468765;32;34261;-87
2022/09/14 11:56:47;;;;;;;;;;;;;;;27.33;42.86;98374.81;4468647;32;34072;-88
2022/09/14 11:59:33;;;;;;;;;;;;;;;26.94;43.56;98376.53;4454443;32;34254;-87
2022/09/14 12:02:20;;;;;;;;;;;;;;;26.97;43.67;98370.13;4454279;32;34220;-87
2022/09/14 12:07:54;;;;;;;;;;;;;;;27.56;42.58;98360.78;4468662;32;34128;-86
2022/09/14 12:10:21;;;;;;;;;;;;;;;27.74;42.21;98355.13;4437257;32;35360;-84
2022/09/14 12:12:49;;;;;;;;;;;;;;;27.03;43.55;98362.59;4468957;32;34287;-88
2022/09/14 12:15:20;;;;;;;;;;;;;;;28.24;41.13;98356.88;4454482;32;32976;-85
2022/09/14 12:17:48;;;;;;;;;;;;;;;28.21;40.70;98353.56;4468728;32;33991;-86
2022/09/14 12:20:28;;;;;;;;;;;;;;;28.30;41.44;98355.59;4454574;32;34387;-83
2022/09/14 12:23:14;;;;;;;;;;;;;;;28.45;40.79;98337.63;4468290;32;34440;-88
2022/09/14 12:25:53;;;;;;;;;;;;;;;28.55;40.32;98341.31;4468391;32;33723;-86
2022/09/14 12:28:36;;;;;;;;;;;;;;;28.69;40.33;98334.97;4468856;32;33929;-88
2022/09/14 12:31:03;;;;;;;;;;;;;;;27.89;41.88;98338.94;4468369;32;34047;-87
2022/09/14 12:33:31;;;;;;;;;;;;;;;28.33;40.82;98334.88;4468414;32;34268;-89
2022/09/14 12:36:02;;;;;;;;;;;;;;;29.19;39.15;98328.50;4468473;32;34251;-88
2022/09/14 12:38:29;;;;;;;;;;;;;;;28.48;40.56;98329.41;4454507;32;35030;-88
2022/09/14 12:41:09;;;;;;;;;;;;;;;29.00;38.89;98320.19;4468695;32;35155;-88
2022/09/14 12:43:36;;;;;;;;;;;;;;;29.07;39.47;98308.94;4468246;32;33251;-89
2022/09/14 12:46:09;;;;;;;;;;;;;;;29.46;38.46;98320.16;4468301;32;33350;-89
2022/09/14 12:51:16;;;;;;;;;;;;;;;29.20;39.10;98303.50;4468368;32;35204;-87
2022/09/14 12:53:43;;;;;;;;;;;;;;;29.19;39.17;98295.63;4468463;32;35085;-84
2022/09/14 12:56:16;;;;;;;;;;;;;;;28.60;39.88;98285.81;4454472;32;33356;-87
2022/09/14 12:58:43;;;;;;;;;;;;;;;29.04;39.67;98282.47;4441730;32;34267;-86
2022/09/14 13:01:13;;;;;;;;;;;;;;;29.94;37.40;98279.88;4443475;32;783591;-87
2022/09/14 13:03:47;;;;;;;;;;;;;;;29.78;38.04;98274.91;4467828;32;33745;-87
2022/09/14 13:06:15;;;;;;;;;;;;;;;29.37;39.24;98269.31;4468296;32;32971;-88
2022/09/14 13:08:42;;;;;;;;;;;;;;;29.25;38.97;98277.31;4453937;32;33746;-86
2022/09/14 13:11:16;;;;;;;;;;;;;;;29.19;38.55;98266.25;4468150;32;34359;-88